Terminal Aerodrome Forecast
Issued by NWS El Paso, TX

Current Version | Previous Version | Text Only | Print | Product List | Glossary On
Versions: 1 2 3 4 5 6 7 8 9 10 11 12 13
000
FTUS44 KEPZ 271800 RRA
TAFELP
TAF
KELP 271812Z 2718/2818 18008KT P6SM BKN250
     FM272000 19007G15KT P6SM BKN250
     FM272300 25009KT P6SM BKN250=

USA.gov is the U.S. government's official web portal to all federal, state and local government web resources and services.